sensor_id;sensor_type;location;lat;lon;timestamp;P1;durP1;ratioP1;P2;durP2;ratioP2
72974;SDS011;61166;54.228;37.632;2022-12-19T00:01:21;8.55;;;2.40;;
72974;SDS011;61166;54.228;37.632;2022-12-19T00:03:57;9.10;;;2.92;;
72974;SDS011;61166;54.228;37.632;2022-12-19T00:06:26;8.70;;;2.65;;
72974;SDS011;61166;54.228;37.632;2022-12-19T00:08:53;6.73;;;2.17;;
72974;SDS011;61166;54.228;37.632;2022-12-19T00:11:21;8.18;;;2.35;;
72974;SDS011;61166;54.228;37.632;2022-12-19T00:13:49;8.20;;;3.20;;
72974;SDS011;61166;54.228;37.632;2022-12-19T00:16:17;7.72;;;2.63;;
72974;SDS011;61166;54.228;37.632;2022-12-19T00:18:46;10.55;;;2.92;;
72974;SDS011;61166;54.228;37.632;2022-12-19T00:21:14;9.67;;;3.10;;
72974;SDS011;61166;54.228;37.632;2022-12-19T00:23:42;7.45;;;2.70;;
72974;SDS011;61166;54.228;37.632;2022-12-19T00:26:14;6.60;;;1.98;;
72974;SDS011;61166;54.228;37.632;2022-12-19T00:28:42;8.98;;;3.28;;
72974;SDS011;61166;54.228;37.632;2022-12-19T00:31:10;10.60;;;3.13;;
72974;SDS011;61166;54.228;37.632;2022-12-19T00:33:36;8.80;;;2.57;;
72974;SDS011;61166;54.228;37.632;2022-12-19T00:36:12;9.00;;;3.05;;
72974;SDS011;61166;54.228;37.632;2022-12-19T00:38:47;8.23;;;2.63;;
72974;SDS011;61166;54.228;37.632;2022-12-19T00:41:15;6.85;;;2.30;;
72974;SDS011;61166;54.228;37.632;2022-12-19T00:43:43;8.70;;;2.83;;
72974;SDS011;61166;54.228;37.632;2022-12-19T00:46:11;6.37;;;2.03;;
72974;SDS011;61166;54.228;37.632;2022-12-19T00:48:40;8.38;;;2.92;;
72974;SDS011;61166;54.228;37.632;2022-12-19T00:51:12;9.80;;;2.97;;
72974;SDS011;61166;54.228;37.632;2022-12-19T00:53:41;9.80;;;3.03;;
72974;SDS011;61166;54.228;37.632;2022-12-19T00:56:10;9.48;;;3.15;;
72974;SDS011;61166;54.228;37.632;2022-12-19T00:58:38;9.80;;;2.90;;
72974;SDS011;61166;54.228;37.632;2022-12-19T01:01:13;7.63;;;2.88;;
72974;SDS011;61166;54.228;37.632;2022-12-19T01:03:41;12.38;;;3.30;;
72974;SDS011;61166;54.228;37.632;2022-12-19T01:06:28;7.13;;;2.45;;
72974;SDS011;61166;54.228;37.632;2022-12-19T01:08:55;4.32;;;1.73;;
72974;SDS011;61166;54.228;37.632;2022-12-19T01:11:22;8.10;;;2.50;;
72974;SDS011;61166;54.228;37.632;2022-12-19T01:13:49;6.13;;;2.13;;
72974;SDS011;61166;54.228;37.632;2022-12-19T01:16:15;8.68;;;2.40;;
72974;SDS011;61166;54.228;37.632;2022-12-19T01:18:43;6.18;;;1.75;;
72974;SDS011;61166;54.228;37.632;2022-12-19T01:21:10;5.03;;;1.73;;
72974;SDS011;61166;54.228;37.632;2022-12-19T01:23:36;8.37;;;2.20;;
72974;SDS011;61166;54.228;37.632;2022-12-19T01:26:03;7.07;;;2.38;;
72974;SDS011;61166;54.228;37.632;2022-12-19T01:28:29;9.85;;;3.65;;
72974;SDS011;61166;54.228;37.632;2022-12-19T01:30:56;5.78;;;1.90;;
72974;SDS011;61166;54.228;37.632;2022-12-19T01:33:22;6.63;;;2.13;;
72974;SDS011;61166;54.228;37.632;2022-12-19T01:35:49;7.23;;;2.67;;
72974;SDS011;61166;54.228;37.632;2022-12-19T01:38:16;6.10;;;1.83;;
72974;SDS011;61166;54.228;37.632;2022-12-19T01:40:52;8.15;;;2.28;;
72974;SDS011;61166;54.228;37.632;2022-12-19T01:43:20;12.50;;;4.07;;
72974;SDS011;61166;54.228;37.632;2022-12-19T01:45:48;9.40;;;2.97;;
72974;SDS011;61166;54.228;37.632;2022-12-19T01:48:33;9.73;;;2.73;;
72974;SDS011;61166;54.228;37.632;2022-12-19T01:51:10;11.15;;;4.18;;
72974;SDS011;61166;54.228;37.632;2022-12-19T01:53:42;9.35;;;2.85;;
72974;SDS011;61166;54.228;37.632;2022-12-19T01:56:14;8.68;;;2.33;;
72974;SDS011;61166;54.228;37.632;2022-12-19T01:58:44;8.45;;;2.53;;
72974;SDS011;61166;54.228;37.632;2022-12-19T02:01:14;7.73;;;2.70;;
72974;SDS011;61166;54.228;37.632;2022-12-19T02:03:42;9.68;;;3.25;;
72974;SDS011;61166;54.228;37.632;2022-12-19T02:06:11;12.40;;;3.40;;
72974;SDS011;61166;54.228;37.632;2022-12-19T02:08:39;6.72;;;2.22;;
72974;SDS011;61166;54.228;37.632;2022-12-19T02:11:08;4.75;;;1.02;;
72974;SDS011;61166;54.228;37.632;2022-12-19T02:13:36;8.63;;;2.67;;
72974;SDS011;61166;54.228;37.632;2022-12-19T02:22:19;9.57;;;3.30;;
72974;SDS011;61166;54.228;37.632;2022-12-19T02:27:42;4.60;;;0.87;;
72974;SDS011;61166;54.228;37.632;2022-12-19T02:36:04;5.13;;;1.63;;
72974;SDS011;61166;54.228;37.632;2022-12-19T02:38:49;9.02;;;1.65;;
72974;SDS011;61166;54.228;37.632;2022-12-19T02:41:34;9.03;;;2.97;;
72974;SDS011;61166;54.228;37.632;2022-12-19T02:44:05;7.18;;;2.65;;
72974;SDS011;61166;54.228;37.632;2022-12-19T02:46:32;4.78;;;1.15;;
72974;SDS011;61166;54.228;37.632;2022-12-19T02:48:58;5.55;;;1.83;;
72974;SDS011;61166;54.228;37.632;2022-12-19T02:51:25;6.03;;;2.58;;
72974;SDS011;61166;54.228;37.632;2022-12-19T02:53:51;6.80;;;2.30;;
72974;SDS011;61166;54.228;37.632;2022-12-19T03:01:54;3.80;;;1.38;;
72974;SDS011;61166;54.228;37.632;2022-12-19T03:07:23;5.43;;;1.70;;
72974;SDS011;61166;54.228;37.632;2022-12-19T03:12:41;6.10;;;1.90;;
72974;SDS011;61166;54.228;37.632;2022-12-19T03:15:13;4.78;;;1.30;;
72974;SDS011;61166;54.228;37.632;2022-12-19T03:17:41;5.90;;;1.20;;
72974;SDS011;61166;54.228;37.632;2022-12-19T03:20:09;4.73;;;1.23;;
72974;SDS011;61166;54.228;37.632;2022-12-19T03:22:51;7.47;;;2.13;;
72974;SDS011;61166;54.228;37.632;2022-12-19T03:25:17;5.32;;;1.65;;
72974;SDS011;61166;54.228;37.632;2022-12-19T03:27:47;3.35;;;1.35;;
72974;SDS011;61166;54.228;37.632;2022-12-19T03:30:16;3.95;;;1.73;;
72974;SDS011;61166;54.228;37.632;2022-12-19T03:32:43;9.47;;;3.00;;
72974;SDS011;61166;54.228;37.632;2022-12-19T03:35:14;7.00;;;2.40;;
72974;SDS011;61166;54.228;37.632;2022-12-19T03:37:45;6.85;;;3.17;;
72974;SDS011;61166;54.228;37.632;2022-12-19T03:40:16;8.35;;;2.95;;
72974;SDS011;61166;54.228;37.632;2022-12-19T03:42:46;6.07;;;1.90;;
72974;SDS011;61166;54.228;37.632;2022-12-19T03:45:14;6.93;;;2.40;;
72974;SDS011;61166;54.228;37.632;2022-12-19T03:47:58;10.50;;;3.28;;
72974;SDS011;61166;54.228;37.632;2022-12-19T03:50:35;8.82;;;2.70;;
72974;SDS011;61166;54.228;37.632;2022-12-19T03:55:48;6.47;;;1.80;;
72974;SDS011;61166;54.228;37.632;2022-12-19T03:58:26;7.10;;;3.20;;
72974;SDS011;61166;54.228;37.632;2022-12-19T04:00:56;8.35;;;3.03;;
72974;SDS011;61166;54.228;37.632;2022-12-19T04:03:24;7.28;;;2.95;;
72974;SDS011;61166;54.228;37.632;2022-12-19T04:05:52;8.02;;;3.20;;
72974;SDS011;61166;54.228;37.632;2022-12-19T04:08:20;10.82;;;3.67;;
72974;SDS011;61166;54.228;37.632;2022-12-19T04:10:52;10.40;;;3.07;;
72974;SDS011;61166;54.228;37.632;2022-12-19T04:13:24;8.50;;;3.30;;
72974;SDS011;61166;54.228;37.632;2022-12-19T04:16:05;9.07;;;3.72;;
72974;SDS011;61166;54.228;37.632;2022-12-19T04:18:43;9.30;;;3.60;;
72974;SDS011;61166;54.228;37.632;2022-12-19T04:21:18;9.20;;;3.30;;
72974;SDS011;61166;54.228;37.632;2022-12-19T04:23:56;8.33;;;3.13;;
72974;SDS011;61166;54.228;37.632;2022-12-19T04:26:27;11.68;;;3.83;;
72974;SDS011;61166;54.228;37.632;2022-12-19T04:28:57;10.50;;;3.63;;
72974;SDS011;61166;54.228;37.632;2022-12-19T04:31:27;10.65;;;3.33;;
72974;SDS011;61166;54.228;37.632;2022-12-19T04:33:54;12.77;;;4.07;;
72974;SDS011;61166;54.228;37.632;2022-12-19T04:36:20;10.87;;;3.83;;
72974;SDS011;61166;54.228;37.632;2022-12-19T04:38:47;8.77;;;3.55;;
72974;SDS011;61166;54.228;37.632;2022-12-19T04:41:14;12.35;;;3.72;;
72974;SDS011;61166;54.228;37.632;2022-12-19T04:43:40;10.88;;;3.33;;
72974;SDS011;61166;54.228;37.632;2022-12-19T04:46:07;11.23;;;3.88;;
72974;SDS011;61166;54.228;37.632;2022-12-19T04:48:34;8.83;;;3.13;;
72974;SDS011;61166;54.228;37.632;2022-12-19T04:51:02;10.45;;;3.83;;
72974;SDS011;61166;54.228;37.632;2022-12-19T04:53:29;9.48;;;2.80;;
72974;SDS011;61166;54.228;37.632;2022-12-19T04:56:03;15.48;;;3.40;;
72974;SDS011;61166;54.228;37.632;2022-12-19T04:58:32;9.38;;;2.95;;
72974;SDS011;61166;54.228;37.632;2022-12-19T05:01:03;12.20;;;4.03;;
72974;SDS011;61166;54.228;37.632;2022-12-19T05:03:31;8.50;;;3.38;;
72974;SDS011;61166;54.228;37.632;2022-12-19T05:06:03;12.27;;;3.85;;
72974;SDS011;61166;54.228;37.632;2022-12-19T05:08:38;11.73;;;3.47;;
72974;SDS011;61166;54.228;37.632;2022-12-19T05:11:06;11.27;;;3.58;;
72974;SDS011;61166;54.228;37.632;2022-12-19T05:13:34;10.53;;;3.33;;
72974;SDS011;61166;54.228;37.632;2022-12-19T05:16:02;13.38;;;4.20;;
72974;SDS011;61166;54.228;37.632;2022-12-19T05:18:30;11.40;;;4.57;;
72974;SDS011;61166;54.228;37.632;2022-12-19T05:20:58;12.05;;;4.70;;
72974;SDS011;61166;54.228;37.632;2022-12-19T05:23:24;12.15;;;4.35;;
72974;SDS011;61166;54.228;37.632;2022-12-19T05:25:51;11.33;;;4.83;;
72974;SDS011;61166;54.228;37.632;2022-12-19T05:28:18;12.70;;;4.43;;
72974;SDS011;61166;54.228;37.632;2022-12-19T05:30:45;10.75;;;3.63;;
72974;SDS011;61166;54.228;37.632;2022-12-19T05:33:17;9.43;;;3.33;;
72974;SDS011;61166;54.228;37.632;2022-12-19T05:35:44;10.32;;;3.83;;
72974;SDS011;61166;54.228;37.632;2022-12-19T05:38:10;13.80;;;4.13;;
72974;SDS011;61166;54.228;37.632;2022-12-19T05:40:39;9.02;;;3.05;;
72974;SDS011;61166;54.228;37.632;2022-12-19T05:43:06;7.68;;;3.13;;
72974;SDS011;61166;54.228;37.632;2022-12-19T05:45:32;8.43;;;3.35;;
72974;SDS011;61166;54.228;37.632;2022-12-19T05:47:59;12.80;;;3.92;;
72974;SDS011;61166;54.228;37.632;2022-12-19T05:50:26;9.50;;;3.20;;
72974;SDS011;61166;54.228;37.632;2022-12-19T05:52:53;11.02;;;3.78;;
72974;SDS011;61166;54.228;37.632;2022-12-19T05:55:20;12.63;;;4.88;;
72974;SDS011;61166;54.228;37.632;2022-12-19T05:57:46;10.15;;;4.05;;
72974;SDS011;61166;54.228;37.632;2022-12-19T06:00:13;9.77;;;3.40;;
72974;SDS011;61166;54.228;37.632;2022-12-19T06:02:40;10.17;;;4.00;;
72974;SDS011;61166;54.228;37.632;2022-12-19T06:05:07;11.27;;;4.07;;
72974;SDS011;61166;54.228;37.632;2022-12-19T06:07:34;11.13;;;3.97;;
72974;SDS011;61166;54.228;37.632;2022-12-19T06:10:01;8.90;;;2.92;;
72974;SDS011;61166;54.228;37.632;2022-12-19T06:12:27;12.05;;;4.85;;
72974;SDS011;61166;54.228;37.632;2022-12-19T06:14:54;10.20;;;3.57;;
72974;SDS011;61166;54.228;37.632;2022-12-19T06:17:20;9.10;;;3.80;;
72974;SDS011;61166;54.228;37.632;2022-12-19T06:19:47;7.85;;;3.10;;
72974;SDS011;61166;54.228;37.632;2022-12-19T06:22:13;12.02;;;4.40;;
72974;SDS011;61166;54.228;37.632;2022-12-19T06:24:40;17.20;;;4.70;;
72974;SDS011;61166;54.228;37.632;2022-12-19T06:27:07;10.63;;;4.70;;
72974;SDS011;61166;54.228;37.632;2022-12-19T06:29:34;10.02;;;3.67;;
72974;SDS011;61166;54.228;37.632;2022-12-19T06:32:00;13.10;;;5.63;;
72974;SDS011;61166;54.228;37.632;2022-12-19T06:34:27;10.80;;;4.43;;
72974;SDS011;61166;54.228;37.632;2022-12-19T06:37:13;10.70;;;4.68;;
72974;SDS011;61166;54.228;37.632;2022-12-19T06:39:40;12.77;;;4.30;;
72974;SDS011;61166;54.228;37.632;2022-12-19T06:42:07;7.65;;;3.00;;
72974;SDS011;61166;54.228;37.632;2022-12-19T06:44:34;11.32;;;4.00;;
72974;SDS011;61166;54.228;37.632;2022-12-19T06:47:01;11.27;;;3.92;;
72974;SDS011;61166;54.228;37.632;2022-12-19T06:49:27;6.32;;;3.15;;
72974;SDS011;61166;54.228;37.632;2022-12-19T06:51:54;12.93;;;5.50;;
72974;SDS011;61166;54.228;37.632;2022-12-19T06:54:20;8.13;;;4.05;;
72974;SDS011;61166;54.228;37.632;2022-12-19T06:56:47;14.60;;;4.50;;
72974;SDS011;61166;54.228;37.632;2022-12-19T06:59:14;9.35;;;3.78;;
72974;SDS011;61166;54.228;37.632;2022-12-19T07:04:34;8.23;;;2.73;;
72974;SDS011;61166;54.228;37.632;2022-12-19T07:07:06;9.32;;;3.10;;
72974;SDS011;61166;54.228;37.632;2022-12-19T07:09:33;9.20;;;3.75;;
72974;SDS011;61166;54.228;37.632;2022-12-19T07:12:01;8.90;;;4.10;;
72974;SDS011;61166;54.228;37.632;2022-12-19T07:14:28;10.15;;;3.15;;
72974;SDS011;61166;54.228;37.632;2022-12-19T07:16:54;10.10;;;4.07;;
72974;SDS011;61166;54.228;37.632;2022-12-19T07:19:24;14.30;;;4.80;;
72974;SDS011;61166;54.228;37.632;2022-12-19T07:21:53;10.15;;;3.85;;
72974;SDS011;61166;54.228;37.632;2022-12-19T07:24:20;10.63;;;4.13;;
72974;SDS011;61166;54.228;37.632;2022-12-19T07:26:47;9.95;;;3.85;;
72974;SDS011;61166;54.228;37.632;2022-12-19T07:29:13;8.20;;;3.33;;
72974;SDS011;61166;54.228;37.632;2022-12-19T07:31:40;11.82;;;4.60;;
72974;SDS011;61166;54.228;37.632;2022-12-19T07:34:07;11.27;;;3.83;;
72974;SDS011;61166;54.228;37.632;2022-12-19T07:36:33;8.52;;;2.65;;
72974;SDS011;61166;54.228;37.632;2022-12-19T07:39:00;12.95;;;3.97;;
72974;SDS011;61166;54.228;37.632;2022-12-19T07:41:26;9.97;;;3.87;;
72974;SDS011;61166;54.228;37.632;2022-12-19T07:43:53;4.35;;;1.98;;
72974;SDS011;61166;54.228;37.632;2022-12-19T07:46:19;16.77;;;6.32;;
72974;SDS011;61166;54.228;37.632;2022-12-19T07:48:46;15.02;;;5.57;;
72974;SDS011;61166;54.228;37.632;2022-12-19T07:51:13;15.32;;;4.85;;
72974;SDS011;61166;54.228;37.632;2022-12-19T07:53:39;14.33;;;4.80;;
72974;SDS011;61166;54.228;37.632;2022-12-19T07:56:06;16.95;;;5.55;;
72974;SDS011;61166;54.228;37.632;2022-12-19T07:58:33;10.45;;;3.80;;
72974;SDS011;61166;54.228;37.632;2022-12-19T08:01:00;12.80;;;3.67;;
72974;SDS011;61166;54.228;37.632;2022-12-19T08:03:27;15.93;;;5.35;;
72974;SDS011;61166;54.228;37.632;2022-12-19T08:05:58;12.40;;;4.10;;
72974;SDS011;61166;54.228;37.632;2022-12-19T08:08:29;12.70;;;3.53;;
72974;SDS011;61166;54.228;37.632;2022-12-19T08:11:04;14.32;;;4.43;;
72974;SDS011;61166;54.228;37.632;2022-12-19T08:13:32;14.95;;;4.53;;
72974;SDS011;61166;54.228;37.632;2022-12-19T08:16:06;11.57;;;3.88;;
72974;SDS011;61166;54.228;37.632;2022-12-19T08:18:33;15.17;;;4.87;;
72974;SDS011;61166;54.228;37.632;2022-12-19T08:20:59;21.15;;;6.97;;
72974;SDS011;61166;54.228;37.632;2022-12-19T08:23:26;16.73;;;6.25;;
72974;SDS011;61166;54.228;37.632;2022-12-19T08:26:04;17.88;;;5.75;;
72974;SDS011;61166;54.228;37.632;2022-12-19T08:28:34;11.18;;;4.60;;
72974;SDS011;61166;54.228;37.632;2022-12-19T08:31:05;10.93;;;3.70;;
72974;SDS011;61166;54.228;37.632;2022-12-19T08:33:32;9.73;;;3.28;;
72974;SDS011;61166;54.228;37.632;2022-12-19T08:36:02;12.77;;;5.20;;
72974;SDS011;61166;54.228;37.632;2022-12-19T08:38:39;10.52;;;4.43;;
72974;SDS011;61166;54.228;37.632;2022-12-19T08:41:06;10.27;;;3.20;;
72974;SDS011;61166;54.228;37.632;2022-12-19T08:43:33;16.00;;;4.90;;
72974;SDS011;61166;54.228;37.632;2022-12-19T08:46:00;11.23;;;4.10;;
72974;SDS011;61166;54.228;37.632;2022-12-19T08:48:26;10.65;;;4.10;;
72974;SDS011;61166;54.228;37.632;2022-12-19T08:50:54;7.40;;;2.35;;
72974;SDS011;61166;54.228;37.632;2022-12-19T08:53:23;10.20;;;3.80;;
72974;SDS011;61166;54.228;37.632;2022-12-19T08:55:55;10.53;;;3.67;;
72974;SDS011;61166;54.228;37.632;2022-12-19T08:58:24;11.23;;;3.63;;
72974;SDS011;61166;54.228;37.632;2022-12-19T09:00:51;11.07;;;4.28;;
72974;SDS011;61166;54.228;37.632;2022-12-19T09:03:26;9.13;;;2.78;;
72974;SDS011;61166;54.228;37.632;2022-12-19T09:06:03;10.30;;;4.35;;
72974;SDS011;61166;54.228;37.632;2022-12-19T09:08:43;9.03;;;3.60;;
72974;SDS011;61166;54.228;37.632;2022-12-19T09:11:10;6.75;;;2.85;;
72974;SDS011;61166;54.228;37.632;2022-12-19T09:13:39;10.93;;;3.47;;
72974;SDS011;61166;54.228;37.632;2022-12-19T09:16:11;9.40;;;3.92;;
72974;SDS011;61166;54.228;37.632;2022-12-19T09:18:38;11.38;;;4.50;;
72974;SDS011;61166;54.228;37.632;2022-12-19T09:21:13;11.70;;;4.20;;
72974;SDS011;61166;54.228;37.632;2022-12-19T09:23:41;14.20;;;4.32;;
72974;SDS011;61166;54.228;37.632;2022-12-19T09:26:11;15.70;;;5.43;;
72974;SDS011;61166;54.228;37.632;2022-12-19T09:28:39;13.10;;;5.22;;
72974;SDS011;61166;54.228;37.632;2022-12-19T09:31:08;9.77;;;3.63;;
72974;SDS011;61166;54.228;37.632;2022-12-19T09:33:37;12.67;;;5.13;;
72974;SDS011;61166;54.228;37.632;2022-12-19T09:36:16;13.90;;;4.25;;
72974;SDS011;61166;54.228;37.632;2022-12-19T09:38:45;11.57;;;4.32;;
72974;SDS011;61166;54.228;37.632;2022-12-19T09:49:29;12.90;;;4.55;;
72974;SDS011;61166;54.228;37.632;2022-12-19T09:52:11;10.65;;;3.92;;
72974;SDS011;61166;54.228;37.632;2022-12-19T09:54:48;9.68;;;3.90;;
72974;SDS011;61166;54.228;37.632;2022-12-19T09:57:24;14.45;;;4.97;;
72974;SDS011;61166;54.228;37.632;2022-12-19T10:00:21;8.93;;;3.57;;
72974;SDS011;61166;54.228;37.632;2022-12-19T10:05:44;10.27;;;3.83;;
72974;SDS011;61166;54.228;37.632;2022-12-19T10:08:38;10.55;;;4.32;;
72974;SDS011;61166;54.228;37.632;2022-12-19T10:11:33;16.25;;;5.38;;
72974;SDS011;61166;54.228;37.632;2022-12-19T10:14:35;13.77;;;4.90;;
72974;SDS011;61166;54.228;37.632;2022-12-19T10:34:21;11.68;;;4.80;;
72974;SDS011;61166;54.228;37.632;2022-12-19T10:36:51;10.20;;;4.22;;
72974;SDS011;61166;54.228;37.632;2022-12-19T10:45:17;10.80;;;4.07;;
72974;SDS011;61166;54.228;37.632;2022-12-19T10:47:47;10.30;;;3.47;;
72974;SDS011;61166;54.228;37.632;2022-12-19T10:50:19;11.52;;;4.53;;
72974;SDS011;61166;54.228;37.632;2022-12-19T10:58:11;13.98;;;5.13;;
72974;SDS011;61166;54.228;37.632;2022-12-19T11:03:51;16.15;;;5.70;;
72974;SDS011;61166;54.228;37.632;2022-12-19T11:11:47;12.70;;;5.03;;
72974;SDS011;61166;54.228;37.632;2022-12-19T11:14:52;10.73;;;4.20;;
72974;SDS011;61166;54.228;37.632;2022-12-19T11:18:04;15.82;;;5.30;;
72974;SDS011;61166;54.228;37.632;2022-12-19T11:26:46;10.60;;;4.22;;
72974;SDS011;61166;54.228;37.632;2022-12-19T11:29:41;14.00;;;5.53;;
72974;SDS011;61166;54.228;37.632;2022-12-19T11:32:31;10.32;;;4.63;;
72974;SDS011;61166;54.228;37.632;2022-12-19T11:35:16;12.02;;;4.28;;
72974;SDS011;61166;54.228;37.632;2022-12-19T11:37:55;12.00;;;5.63;;
72974;SDS011;61166;54.228;37.632;2022-12-19T11:40:31;18.00;;;5.28;;
72974;SDS011;61166;54.228;37.632;2022-12-19T11:43:28;16.27;;;5.53;;
72974;SDS011;61166;54.228;37.632;2022-12-19T11:46:35;14.10;;;5.30;;
72974;SDS011;61166;54.228;37.632;2022-12-19T11:51:56;10.17;;;4.03;;
72974;SDS011;61166;54.228;37.632;2022-12-19T11:54:29;12.30;;;4.85;;
72974;SDS011;61166;54.228;37.632;2022-12-19T11:56:57;13.18;;;5.72;;
72974;SDS011;61166;54.228;37.632;2022-12-19T12:02:01;12.18;;;5.10;;
72974;SDS011;61166;54.228;37.632;2022-12-19T12:07:36;12.93;;;5.68;;
72974;SDS011;61166;54.228;37.632;2022-12-19T12:10:24;15.25;;;5.53;;
72974;SDS011;61166;54.228;37.632;2022-12-19T12:16:26;14.55;;;6.18;;
72974;SDS011;61166;54.228;37.632;2022-12-19T12:22:44;15.80;;;6.63;;
72974;SDS011;61166;54.228;37.632;2022-12-19T12:25:44;16.42;;;6.10;;
72974;SDS011;61166;54.228;37.632;2022-12-19T12:32:19;15.57;;;6.53;;
72974;SDS011;61166;54.228;37.632;2022-12-19T12:44:12;12.93;;;5.95;;
72974;SDS011;61166;54.228;37.632;2022-12-19T12:46:51;13.82;;;4.90;;
72974;SDS011;61166;54.228;37.632;2022-12-19T12:49:40;15.57;;;6.00;;
72974;SDS011;61166;54.228;37.632;2022-12-19T12:52:15;15.02;;;6.03;;
72974;SDS011;61166;54.228;37.632;2022-12-19T12:54:46;15.05;;;5.88;;
72974;SDS011;61166;54.228;37.632;2022-12-19T13:03:05;15.93;;;6.10;;
72974;SDS011;61166;54.228;37.632;2022-12-19T13:11:12;16.77;;;6.55;;
72974;SDS011;61166;54.228;37.632;2022-12-19T13:13:59;12.23;;;5.05;;
72974;SDS011;61166;54.228;37.632;2022-12-19T13:19:24;12.95;;;5.40;;
72974;SDS011;61166;54.228;37.632;2022-12-19T13:24:48;21.13;;;6.97;;
72974;SDS011;61166;54.228;37.632;2022-12-19T13:32:18;16.48;;;5.43;;
72974;SDS011;61166;54.228;37.632;2022-12-19T13:34:50;15.90;;;6.70;;
72974;SDS011;61166;54.228;37.632;2022-12-19T13:37:45;9.98;;;4.30;;
72974;SDS011;61166;54.228;37.632;2022-12-19T13:43:32;14.77;;;6.43;;
72974;SDS011;61166;54.228;37.632;2022-12-19T13:46:04;16.05;;;6.18;;
72974;SDS011;61166;54.228;37.632;2022-12-19T13:48:44;16.75;;;7.10;;
72974;SDS011;61166;54.228;37.632;2022-12-19T13:51:13;13.10;;;5.25;;
72974;SDS011;61166;54.228;37.632;2022-12-19T13:53:40;18.48;;;6.90;;
72974;SDS011;61166;54.228;37.632;2022-12-19T13:56:11;16.57;;;6.30;;
72974;SDS011;61166;54.228;37.632;2022-12-19T13:58:45;11.68;;;4.50;;
72974;SDS011;61166;54.228;37.632;2022-12-19T14:01:22;15.20;;;4.75;;
72974;SDS011;61166;54.228;37.632;2022-12-19T14:04:13;14.38;;;4.50;;
72974;SDS011;61166;54.228;37.632;2022-12-19T14:06:51;13.85;;;5.95;;
72974;SDS011;61166;54.228;37.632;2022-12-19T14:12:27;14.38;;;6.13;;
72974;SDS011;61166;54.228;37.632;2022-12-19T14:15:23;11.40;;;4.38;;
72974;SDS011;61166;54.228;37.632;2022-12-19T14:17:54;15.75;;;5.55;;
72974;SDS011;61166;54.228;37.632;2022-12-19T14:20:22;12.88;;;4.68;;
72974;SDS011;61166;54.228;37.632;2022-12-19T14:23:10;11.97;;;4.60;;
72974;SDS011;61166;54.228;37.632;2022-12-19T14:28:51;13.80;;;4.45;;
72974;SDS011;61166;54.228;37.632;2022-12-19T14:31:22;18.92;;;6.07;;
72974;SDS011;61166;54.228;37.632;2022-12-19T14:33:50;20.73;;;6.80;;
72974;SDS011;61166;54.228;37.632;2022-12-19T14:36:38;13.80;;;5.40;;
72974;SDS011;61166;54.228;37.632;2022-12-19T14:39:22;15.45;;;6.30;;
72974;SDS011;61166;54.228;37.632;2022-12-19T14:48:35;15.88;;;6.82;;
72974;SDS011;61166;54.228;37.632;2022-12-19T14:51:34;11.77;;;4.63;;
72974;SDS011;61166;54.228;37.632;2022-12-19T14:54:24;12.20;;;4.22;;
72974;SDS011;61166;54.228;37.632;2022-12-19T14:57:15;14.95;;;5.13;;
72974;SDS011;61166;54.228;37.632;2022-12-19T15:03:33;11.10;;;3.92;;
72974;SDS011;61166;54.228;37.632;2022-12-19T15:06:27;11.33;;;4.10;;
72974;SDS011;61166;54.228;37.632;2022-12-19T15:09:15;12.70;;;5.45;;
72974;SDS011;61166;54.228;37.632;2022-12-19T15:12:09;13.75;;;5.05;;
72974;SDS011;61166;54.228;37.632;2022-12-19T15:15:18;13.45;;;5.65;;
72974;SDS011;61166;54.228;37.632;2022-12-19T15:17:51;14.55;;;5.85;;
72974;SDS011;61166;54.228;37.632;2022-12-19T15:20:19;15.37;;;5.50;;
72974;SDS011;61166;54.228;37.632;2022-12-19T15:22:46;21.38;;;6.32;;
72974;SDS011;61166;54.228;37.632;2022-12-19T15:25:14;14.38;;;5.78;;
72974;SDS011;61166;54.228;37.632;2022-12-19T15:28:04;8.50;;;3.42;;
72974;SDS011;61166;54.228;37.632;2022-12-19T15:30:37;10.75;;;3.88;;
72974;SDS011;61166;54.228;37.632;2022-12-19T15:33:11;14.93;;;5.90;;
72974;SDS011;61166;54.228;37.632;2022-12-19T15:35:39;11.60;;;4.50;;
72974;SDS011;61166;54.228;37.632;2022-12-19T15:38:05;13.40;;;4.82;;
72974;SDS011;61166;54.228;37.632;2022-12-19T15:40:32;13.38;;;5.05;;
72974;SDS011;61166;54.228;37.632;2022-12-19T15:42:59;14.27;;;5.90;;
72974;SDS011;61166;54.228;37.632;2022-12-19T15:45:26;15.10;;;6.07;;
72974;SDS011;61166;54.228;37.632;2022-12-19T15:47:55;15.32;;;5.55;;
72974;SDS011;61166;54.228;37.632;2022-12-19T15:50:23;10.70;;;4.75;;
72974;SDS011;61166;54.228;37.632;2022-12-19T15:52:52;11.43;;;4.53;;
72974;SDS011;61166;54.228;37.632;2022-12-19T15:55:21;16.60;;;6.60;;
72974;SDS011;61166;54.228;37.632;2022-12-19T15:57:55;12.13;;;4.17;;
72974;SDS011;61166;54.228;37.632;2022-12-19T16:00:30;10.48;;;4.43;;
72974;SDS011;61166;54.228;37.632;2022-12-19T16:02:59;17.05;;;7.28;;
72974;SDS011;61166;54.228;37.632;2022-12-19T16:05:46;11.80;;;4.55;;
72974;SDS011;61166;54.228;37.632;2022-12-19T16:08:17;13.90;;;4.68;;
72974;SDS011;61166;54.228;37.632;2022-12-19T16:10:47;10.17;;;3.87;;
72974;SDS011;61166;54.228;37.632;2022-12-19T16:13:27;14.05;;;5.63;;
72974;SDS011;61166;54.228;37.632;2022-12-19T16:15:56;8.93;;;3.80;;
72974;SDS011;61166;54.228;37.632;2022-12-19T16:18:24;17.15;;;5.57;;
72974;SDS011;61166;54.228;37.632;2022-12-19T16:20:50;18.35;;;6.10;;
72974;SDS011;61166;54.228;37.632;2022-12-19T16:23:17;16.20;;;5.93;;
72974;SDS011;61166;54.228;37.632;2022-12-19T16:25:47;17.35;;;5.90;;
72974;SDS011;61166;54.228;37.632;2022-12-19T16:30:43;13.68;;;5.15;;
72974;SDS011;61166;54.228;37.632;2022-12-19T16:33:23;8.63;;;3.63;;
72974;SDS011;61166;54.228;37.632;2022-12-19T16:35:52;11.60;;;4.77;;
72974;SDS011;61166;54.228;37.632;2022-12-19T16:38:34;13.90;;;5.32;;
72974;SDS011;61166;54.228;37.632;2022-12-19T16:41:01;12.93;;;5.35;;
72974;SDS011;61166;54.228;37.632;2022-12-19T16:43:34;12.63;;;4.53;;
72974;SDS011;61166;54.228;37.632;2022-12-19T16:46:04;15.02;;;6.32;;
72974;SDS011;61166;54.228;37.632;2022-12-19T16:48:32;12.33;;;5.27;;
72974;SDS011;61166;54.228;37.632;2022-12-19T16:50:59;13.93;;;6.60;;
72974;SDS011;61166;54.228;37.632;2022-12-19T16:53:25;10.10;;;4.68;;
72974;SDS011;61166;54.228;37.632;2022-12-19T16:55:53;12.02;;;5.40;;
72974;SDS011;61166;54.228;37.632;2022-12-19T16:58:22;14.50;;;5.20;;
72974;SDS011;61166;54.228;37.632;2022-12-19T17:00:51;13.97;;;6.00;;
72974;SDS011;61166;54.228;37.632;2022-12-19T17:03:35;14.68;;;5.63;;
72974;SDS011;61166;54.228;37.632;2022-12-19T17:06:04;11.68;;;3.75;;
72974;SDS011;61166;54.228;37.632;2022-12-19T17:08:31;11.43;;;4.22;;
72974;SDS011;61166;54.228;37.632;2022-12-19T17:10:58;12.35;;;5.13;;
72974;SDS011;61166;54.228;37.632;2022-12-19T17:13:24;18.13;;;6.20;;
72974;SDS011;61166;54.228;37.632;2022-12-19T17:15:51;16.00;;;6.60;;
72974;SDS011;61166;54.228;37.632;2022-12-19T17:18:26;8.77;;;3.80;;
72974;SDS011;61166;54.228;37.632;2022-12-19T17:20:56;17.38;;;5.90;;
72974;SDS011;61166;54.228;37.632;2022-12-19T17:23:23;16.52;;;6.30;;
72974;SDS011;61166;54.228;37.632;2022-12-19T17:25:50;16.47;;;6.87;;
72974;SDS011;61166;54.228;37.632;2022-12-19T17:28:18;16.30;;;6.80;;
72974;SDS011;61166;54.228;37.632;2022-12-19T17:30:48;15.50;;;6.88;;
72974;SDS011;61166;54.228;37.632;2022-12-19T17:33:19;7.63;;;3.50;;